Toll Gate Heights, Indiana
Current Conditions -  °F | °C
As of 2:35 PM on Thursday 23 Oct 2014 (Local Time) from KHHG Reporting Station
Clear Clear  
Wind Chill: 57°   Ceiling: Unl
Heat Index: 57°   Visibility: 10mi
Dew Point: 41°   Wind: 6mph
Humidity: 55%   Direction: 190°S
Pressure: 30.18"   Gusts: NA
Location:  40.7175°N, 85.1549°W
Report Text: KHHG 231835Z AUTO 19005KT 10SM CLR 14/05 A3018 RMK AO2 T01370048
Loading
Personal Weather Stations






























Interactive Weather Map
Tropical Storm Tracking
New forecast layout! Learn more

10-Day Weather Forecast

Advertisements
Track Severe Weather on mobile